WetterOnline ( https://www.wetteronline.at )

Wetter aktuell Braunschweig

Aktuelles Wetter: Braunschweig/Flughafen (88m)

6-stündlich | Neueste Meldungen
Ortszeit Temperatur Wetter
So, 15.12. 13:00 9.1° C wolkenlos
So, 15.12. 7:00 5.4° C bedeckt
So, 15.12. 1:00 4.4° C fast wolkenlos
Sa, 14.12. 19:00 5.2° C Sprühregen
Sa, 14.12. 13:00 5.4° C bedeckt
Sa, 14.12. 7:00 4.9° C bedeckt
Sa, 14.12. 1:00 1.9° C Sprühregen
Fr, 13.12. 19:00 2.1° C bewölkt
Ortszeit Temperatur Wetter
So, 15.12. 13:00 9.1° C wolkenlos
So, 15.12. 12:50 9.1° C wolkenlos
So, 15.12. 12:40 9.1° C fast wolkenlos
So, 15.12. 12:30 9.2° C leicht bewölkt
So, 15.12. 12:20 9.2° C leicht bewölkt
So, 15.12. 12:10 9.0° C leicht bewölkt
So, 15.12. 12:00 8.8° C wolkenlos
So, 15.12. 11:30 8.8° C leicht bewölkt
So, 15.12. 11:00 8.4° C leicht bewölkt
So, 15.12. 10:30 8.6° C leicht bewölkt
So, 15.12. 10:00 8.8° C Regen
Ortszeit Relative Feuchte Sichtweite
So, 15.12. 13:00 63% 16 km
So, 15.12. 7:00 80% 55 km
So, 15.12. 1:00 74% 50 km
Sa, 14.12. 19:00 81% 18 km
Sa, 14.12. 13:00 82% 50 km
Sa, 14.12. 7:00 82% 55 km
Sa, 14.12. 1:00 96% 16 km
Fr, 13.12. 19:00 85% 14 km
Ortszeit Relative Feuchte Sichtweite
So, 15.12. 13:00 63% 16 km
So, 15.12. 12:50 63% -
So, 15.12. 12:40 63% -
So, 15.12. 12:30 66% 40 km
So, 15.12. 12:20 66% -
So, 15.12. 12:10 68% -
So, 15.12. 12:00 66% 21 km
So, 15.12. 11:30 67% 29 km
So, 15.12. 11:00 71% 70 km
So, 15.12. 10:30 72% 70 km
So, 15.12. 10:00 78% 70 km
Ortszeit Niederschlagsmenge Niederschlagsart
So, 15.12. 13:00 2 l/m2 in 6 Std. Regen
So, 15.12. 7:00 0.4 l/m2 in 12 Std. Regen
So, 15.12. 1:00 0.4 l/m2 in 6 Std. Regen
Sa, 14.12. 19:00 2 l/m2 in 12 Std. Regen
Sa, 14.12. 13:00 2 l/m2 in 6 Std. Regen
Sa, 14.12. 7:00 3 l/m2 in 12 Std. Regen
Sa, 14.12. 1:00 2 l/m2 in 6 Std. Regen
Fr, 13.12. 19:00 0.2 l/m2 in 12 Std. Schnee, Regen
Ortszeit Niederschlagsmenge Niederschlagsart
So, 15.12. 13:00 0.0 l/m2 in 1 Std. Regen
So, 15.12. 12:50 keine Meldung -
So, 15.12. 12:40 keine Meldung -
So, 15.12. 12:30 0.0 l/m2 in 1 Std. -
So, 15.12. 12:20 keine Meldung -
So, 15.12. 12:10 keine Meldung -
So, 15.12. 12:00 0.0 l/m2 in 1 Std. -
So, 15.12. 11:30 0.0 l/m2 in 1 Std. -
So, 15.12. 11:00 0.1 l/m2 in 1 Std. Regen
So, 15.12. 10:30 0.1 l/m2 in 1 Std. Schneeregen
So, 15.12. 10:00 1.4 l/m2 in 1 Std. Regen
Ortszeit Stärke Spitze Richtung
km/h Bft. km/h Grad Sektor
So, 15.12. 13:00 29 5 50 240° SW
So, 15.12. 7:00 13 3 30 130° SO
So, 15.12. 1:00 18 3 65 230° SW
Sa, 14.12. 19:00 19 3 54 210° SW
Sa, 14.12. 13:00 22 4 35 240° SW
Sa, 14.12. 7:00 14 3 29 200° S
Sa, 14.12. 1:00 9 2 24 210° SW
Fr, 13.12. 19:00 9 2 33 150° SO
Ortszeit Stärke Spitze Richtung
km/h Bft. km/h Grad Sektor
So, 15.12. 13:00 29 5 47 240° SW
So, 15.12. 12:50 29 5 - 240° SW
So, 15.12. 12:40 30 5 - 240° SW
So, 15.12. 12:30 26 4 48 230° SW
So, 15.12. 12:20 26 4 - 230° SW
So, 15.12. 12:10 24 4 - 240° SW
So, 15.12. 12:00 29 5 50 230° SW
So, 15.12. 11:30 31 5 46 230° SW
So, 15.12. 11:00 25 4 43 230° SW
So, 15.12. 10:30 19 3 41 220° SW
So, 15.12. 10:00 25 4 50 230° SW
Ortszeit Untergrenze Bedeckung Gattung
total tief tief mittel hoch
So, 15.12. 13:00 - 0/8 0/8 - - -
So, 15.12. 7:00 660 m 8/8 8/8 - - -
So, 15.12. 1:00 8400 m 2/8 0/8 - - -
Sa, 14.12. 19:00 780 m 7/8 7/8 - - -
Sa, 14.12. 13:00 510 m 8/8 8/8 - - -
Sa, 14.12. 7:00 1500 m 8/8 8/8 - - -
Sa, 14.12. 1:00 180 m 7/8 8/8 - - -
Fr, 13.12. 19:00 660 m 7/8 7/8 - - -
Ortszeit Bedeckungsgrad in Achtel und Wolkenuntergrenze
So, 15.12. 13:00 keine Wolken
So, 15.12. 12:50 keine Wolken
So, 15.12. 12:40 1(990m)
So, 15.12. 12:30 3(990m)
So, 15.12. 12:20 3(990m)
So, 15.12. 12:10 2(1020m)
So, 15.12. 12:00 1(990m)
So, 15.12. 11:30 2(4200m)
So, 15.12. 11:00 4(3900m) 4(4800m)
So, 15.12. 10:30 1(1320m) 4(3900m)
So, 15.12. 10:00 1(630m) 5(1800m) 7(2400m)
Ortszeit Luftdruck NN (hPa) Tendenz (hPa in 3 Std.)
So, 15.12. 13:00 998 + 3,1
So, 15.12. 7:00 994 - 3,3
So, 15.12. 1:00 999 + 2,3
Sa, 14.12. 19:00 993 + 1,6
Sa, 14.12. 13:00 988 + 3,9
Sa, 14.12. 7:00 983 - 1,2
Sa, 14.12. 1:00 984 + 1,2
Fr, 13.12. 19:00 982 + 1,5
Ortszeit Luftdruck NN (hPa) Tendenz (hPa in 3 Std.)
So, 15.12. 13:00 998 + 3,1
So, 15.12. 12:50 998 keine Meldung
So, 15.12. 12:40 998 keine Meldung
So, 15.12. 12:30 998 + 2,8
So, 15.12. 12:20 998 keine Meldung
So, 15.12. 12:10 998 keine Meldung
So, 15.12. 12:00 997 + 3,9
So, 15.12. 11:30 997 + 3,8
So, 15.12. 11:00 996 + 3,0
So, 15.12. 10:30 995 + 1,7
So, 15.12. 10:00 995 + 0,9
Ortszeit Schneehöhe (cm)
So, 15.12. 13:00 0
So, 15.12. 7:00 0
So, 15.12. 1:00 0
Sa, 14.12. 19:00 0
Sa, 14.12. 13:00 0
Sa, 14.12. 7:00 0
Sa, 14.12. 1:00 0
Fr, 13.12. 19:00 0
Ortszeit Schneehöhe (cm)
So, 15.12. 13:00 0
So, 15.12. 12:50 0
So, 15.12. 12:40 0
So, 15.12. 12:30 0
So, 15.12. 12:20 0
So, 15.12. 12:10 0
So, 15.12. 12:00 0
So, 15.12. 11:30 0
So, 15.12. 11:00 0
So, 15.12. 10:30 0
So, 15.12. 10:00 0
Link zu dieser Seite / Seite empfehlen

Das Wetter in ...